createdAt,value
2022-10-10T00:00:05.815Z,8.05
2022-10-10T00:02:51.414Z,7.68
2022-10-10T00:05:39.373Z,7.07
2022-10-10T00:08:24.678Z,6.82
2022-10-10T00:11:11.842Z,7.60
2022-10-10T00:13:57.491Z,7.38
2022-10-10T00:16:43.066Z,8.23
2022-10-10T00:19:28.665Z,7.43
2022-10-10T00:22:13.953Z,7.22
2022-10-10T00:24:59.764Z,7.07
2022-10-10T00:27:45.092Z,7.53
2022-10-10T00:30:31.194Z,7.95
2022-10-10T00:33:16.873Z,6.88
2022-10-10T00:36:02.388Z,7.15
2022-10-10T00:38:47.919Z,7.35
2022-10-10T00:41:33.793Z,6.40
2022-10-10T00:44:19.107Z,5.70
2022-10-10T00:47:04.575Z,5.95
2022-10-10T00:49:50.032Z,5.60
2022-10-10T00:52:35.576Z,6.35
2022-10-10T00:55:21.669Z,7.45
2022-10-10T00:58:09.196Z,7.80
2022-10-10T01:00:55.253Z,8.05
2022-10-10T01:03:40.640Z,8.30
2022-10-10T01:06:26.673Z,7.88
2022-10-10T01:09:12.197Z,7.35
2022-10-10T01:12:04.792Z,7.80
2022-10-10T01:15:12.860Z,7.18
2022-10-10T01:18:04.124Z,7.43
2022-10-10T01:20:55.562Z,8.35
2022-10-10T01:24:02.392Z,7.85
2022-10-10T01:26:47.455Z,7.90
2022-10-10T01:29:51.512Z,6.95
2022-10-10T01:32:54.171Z,6.13
2022-10-10T01:35:58.138Z,7.55
2022-10-10T01:38:52.076Z,10.05
2022-10-10T01:41:56.353Z,8.02
2022-10-10T01:44:46.722Z,8.07
2022-10-10T01:47:32.521Z,7.43
2022-10-10T01:50:21.723Z,8.00
2022-10-10T01:53:20.221Z,6.75
2022-10-10T01:56:22.981Z,6.60
2022-10-10T01:59:45.665Z,6.78
2022-10-10T02:02:34.266Z,6.60
2022-10-10T02:05:36.592Z,6.32
2022-10-10T02:08:34.348Z,6.30
2022-10-10T02:11:19.613Z,7.45
2022-10-10T02:14:28.522Z,7.80
2022-10-10T02:17:15.908Z,6.50
2022-10-10T02:20:01.218Z,7.22
2022-10-10T02:22:50.022Z,7.45
2022-10-10T02:25:39.532Z,7.13
2022-10-10T02:28:34.539Z,6.45
2022-10-10T02:31:28.450Z,6.05
2022-10-10T02:34:23.274Z,6.82
2022-10-10T02:37:12.563Z,6.32
2022-10-10T02:40:01.526Z,5.80
2022-10-10T02:42:49.502Z,6.15
2022-10-10T02:45:35.937Z,6.95
2022-10-10T02:48:21.516Z,6.72
2022-10-10T02:51:07.674Z,6.30
2022-10-10T02:53:52.979Z,6.00
2022-10-10T02:56:38.482Z,5.45
2022-10-10T02:59:24.155Z,5.53
2022-10-10T03:02:09.522Z,5.82
2022-10-10T03:04:55.204Z,5.70
2022-10-10T03:07:41.018Z,5.65
2022-10-10T03:10:26.482Z,6.18
2022-10-10T03:13:12.177Z,5.93
2022-10-10T03:15:57.948Z,5.07
2022-10-10T03:18:43.425Z,6.20
2022-10-10T03:21:29.459Z,6.22
2022-10-10T03:24:15.258Z,6.07
2022-10-10T03:27:00.944Z,6.25
2022-10-10T03:29:46.443Z,6.10
2022-10-10T03:32:31.989Z,6.45
2022-10-10T03:35:17.667Z,6.20
2022-10-10T03:38:03.966Z,5.72
2022-10-10T03:40:49.446Z,5.45
2022-10-10T03:43:34.938Z,5.30
2022-10-10T03:46:20.980Z,5.28
2022-10-10T03:49:06.476Z,5.70
2022-10-10T03:51:51.832Z,5.82
2022-10-10T03:54:37.486Z,5.75
2022-10-10T03:57:22.729Z,5.80
2022-10-10T04:00:09.461Z,6.20
2022-10-10T04:02:54.690Z,5.40
2022-10-10T04:05:40.659Z,5.80
2022-10-10T04:08:26.509Z,5.28
2022-10-10T04:11:11.872Z,5.25
2022-10-10T04:13:57.432Z,5.60
2022-10-10T04:16:42.969Z,5.05
2022-10-10T04:19:28.436Z,6.18
2022-10-10T04:22:14.522Z,6.25
2022-10-10T04:25:00.056Z,5.82
2022-10-10T04:27:45.712Z,5.80
2022-10-10T04:30:33.957Z,8.13
2022-10-10T04:33:19.619Z,7.47
2022-10-10T04:36:05.324Z,7.70
2022-10-10T04:38:50.828Z,7.32
2022-10-10T04:41:36.569Z,7.25
2022-10-10T04:44:21.892Z,7.03
2022-10-10T04:47:07.421Z,6.03
2022-10-10T04:49:52.809Z,5.80
2022-10-10T04:52:38.768Z,5.70
2022-10-10T04:55:24.321Z,6.68
2022-10-10T04:58:09.809Z,5.30
2022-10-10T05:00:55.864Z,6.10
2022-10-10T05:03:41.158Z,5.85
2022-10-10T05:06:27.048Z,5.95
2022-10-10T05:09:13.283Z,6.03
2022-10-10T05:11:58.815Z,5.60
2022-10-10T05:14:47.947Z,6.70
2022-10-10T05:17:33.990Z,6.57
2022-10-10T05:20:19.658Z,6.55
2022-10-10T05:23:05.002Z,6.10
2022-10-10T05:25:51.439Z,6.80
2022-10-10T05:28:37.300Z,6.32
2022-10-10T05:31:23.116Z,6.10
2022-10-10T05:34:13.672Z,6.15
2022-10-10T05:36:59.090Z,5.63
2022-10-10T05:39:44.658Z,6.18
2022-10-10T05:42:30.082Z,6.43
2022-10-10T05:45:15.674Z,6.75
2022-10-10T05:48:00.878Z,5.90
2022-10-10T05:50:49.721Z,5.57
2022-10-10T05:53:35.047Z,5.85
2022-10-10T05:56:20.712Z,6.10
2022-10-10T05:59:06.005Z,5.70
2022-10-10T06:01:51.413Z,5.32
2022-10-10T06:04:36.671Z,5.75
2022-10-10T06:07:22.139Z,5.45
2022-10-10T06:10:08.609Z,6.05
2022-10-10T06:12:54.031Z,6.28
2022-10-10T06:15:40.084Z,5.55
2022-10-10T06:18:25.561Z,5.60
2022-10-10T06:21:11.682Z,7.10
2022-10-10T06:23:57.186Z,6.60
2022-10-10T06:26:42.525Z,6.32
2022-10-10T06:29:28.345Z,6.25
2022-10-10T06:32:13.773Z,6.82
2022-10-10T06:34:59.217Z,6.63
2022-10-10T06:37:44.709Z,6.35
2022-10-10T06:40:30.176Z,5.93
2022-10-10T06:43:17.103Z,6.65
2022-10-10T06:46:03.198Z,6.40
2022-10-10T06:48:48.719Z,6.10
2022-10-10T06:51:35.615Z,5.63
2022-10-10T06:54:20.838Z,6.10
2022-10-10T06:57:06.456Z,6.00
2022-10-10T06:59:51.983Z,6.13
2022-10-10T07:02:40.744Z,6.13
2022-10-10T07:05:26.239Z,6.65
2022-10-10T07:08:11.696Z,5.75
2022-10-10T07:10:57.176Z,6.75
2022-10-10T07:13:42.615Z,5.90
2022-10-10T07:16:28.071Z,5.82
2022-10-10T07:19:14.752Z,5.80
2022-10-10T07:22:00.160Z,5.90
2022-10-10T07:24:45.744Z,6.35
2022-10-10T07:27:31.051Z,5.93
2022-10-10T07:30:16.722Z,6.05
2022-10-10T07:33:02.192Z,6.32
2022-10-10T07:35:54.507Z,5.93
2022-10-10T07:38:40.290Z,5.88
2022-10-10T07:41:25.699Z,6.53
2022-10-10T07:44:11.344Z,5.78
2022-10-10T07:46:56.840Z,5.68
2022-10-10T07:49:42.332Z,6.00
2022-10-10T07:52:27.967Z,6.22
2022-10-10T07:55:13.511Z,5.80
2022-10-10T07:58:00.149Z,5.90
2022-10-10T08:00:45.622Z,5.85
2022-10-10T08:03:31.578Z,5.85
2022-10-10T08:06:18.025Z,7.25
2022-10-10T08:09:03.759Z,6.50
2022-10-10T08:11:49.149Z,6.07
2022-10-10T08:14:34.731Z,5.50
2022-10-10T08:17:20.165Z,5.60
2022-10-10T08:20:06.082Z,5.38
2022-10-10T08:22:51.487Z,5.53
2022-10-10T08:25:37.481Z,5.40
2022-10-10T08:28:23.021Z,5.72
2022-10-10T08:31:10.782Z,5.10
2022-10-10T08:33:56.691Z,5.88
2022-10-10T08:36:42.307Z,5.35
2022-10-10T08:39:27.657Z,5.30
2022-10-10T08:42:36.815Z,5.70
2022-10-10T08:45:26.246Z,5.55
2022-10-10T08:48:16.499Z,6.28
2022-10-10T08:51:10.823Z,5.30
2022-10-10T08:54:00.646Z,4.57
2022-10-10T08:56:46.925Z,5.30
2022-10-10T08:59:36.548Z,5.07
2022-10-10T09:02:59.053Z,4.90
2022-10-10T09:05:56.126Z,4.68
2022-10-10T09:09:16.434Z,4.68
2022-10-10T09:12:14.218Z,4.70
2022-10-10T09:15:15.094Z,4.70
2022-10-10T09:18:32.910Z,4.22
2022-10-10T09:21:26.671Z,4.78
2022-10-10T09:24:20.971Z,3.95
2022-10-10T09:27:12.920Z,4.78
2022-10-10T09:30:06.367Z,4.20
2022-10-10T09:33:07.180Z,3.70
2022-10-10T09:35:54.948Z,4.32
2022-10-10T09:38:51.441Z,4.38
2022-10-10T09:41:45.454Z,4.50
2022-10-10T09:44:32.390Z,4.10
2022-10-10T09:47:17.885Z,4.20
2022-10-10T09:52:51.675Z,4.55
2022-10-10T09:55:39.203Z,3.95
2022-10-10T09:58:36.060Z,4.10
2022-10-10T10:01:21.409Z,3.63
2022-10-10T10:04:27.294Z,2.83
2022-10-10T10:07:32.606Z,3.40
2022-10-10T10:10:21.434Z,3.03
2022-10-10T10:13:21.619Z,3.40
2022-10-10T10:16:11.660Z,3.85
2022-10-10T10:18:57.303Z,2.75
2022-10-10T10:21:52.886Z,2.75
2022-10-10T10:24:39.129Z,3.20
2022-10-10T10:27:26.670Z,2.47
2022-10-10T10:30:27.881Z,3.03
2022-10-10T10:33:19.065Z,3.20
2022-10-10T10:36:46.248Z,3.17
2022-10-10T10:39:47.949Z,2.92
2022-10-10T10:43:00.592Z,3.25
2022-10-10T10:46:28.041Z,3.25
2022-10-10T10:49:25.488Z,3.17
2022-10-10T10:52:33.389Z,3.50
2022-10-10T10:55:18.833Z,2.58
2022-10-10T11:01:56.782Z,2.85
2022-10-10T11:05:23.134Z,2.78
2022-10-10T11:08:29.007Z,2.90
2022-10-10T11:11:25.235Z,3.08
2022-10-10T11:14:36.703Z,2.80
2022-10-10T11:17:41.451Z,2.40
2022-10-10T11:20:32.672Z,2.20
2022-10-10T11:23:28.344Z,2.22
2022-10-10T11:26:19.300Z,2.53
2022-10-10T11:29:11.411Z,2.28
2022-10-10T11:32:08.106Z,2.33
2022-10-10T11:35:21.181Z,2.25
2022-10-10T11:38:19.165Z,2.03
2022-10-10T11:41:14.476Z,2.08
2022-10-10T11:44:22.241Z,2.20
2022-10-10T11:47:23.920Z,2.40
2022-10-10T11:50:29.046Z,2.20
2022-10-10T11:53:14.235Z,2.33
2022-10-10T11:56:17.699Z,2.20
2022-10-10T11:59:30.690Z,3.03
2022-10-10T12:02:27.979Z,2.45
2022-10-10T12:05:42.273Z,2.40
2022-10-10T12:08:34.542Z,2.35
2022-10-10T12:11:26.232Z,2.47
2022-10-10T12:14:16.576Z,2.58
2022-10-10T12:17:02.112Z,2.53
2022-10-10T12:19:54.357Z,2.50
2022-10-10T12:22:39.977Z,3.22
2022-10-10T12:25:42.296Z,2.30
2022-10-10T12:28:35.117Z,2.30
2022-10-10T12:31:28.676Z,2.80
2022-10-10T12:34:17.020Z,2.60
2022-10-10T12:37:30.848Z,2.22
2022-10-10T12:40:21.381Z,2.03
2022-10-10T12:43:46.485Z,2.45
2022-10-10T12:46:33.393Z,2.50
2022-10-10T12:49:25.708Z,2.58
2022-10-10T12:52:18.367Z,2.63
2022-10-10T12:55:08.657Z,2.50
2022-10-10T12:58:07.317Z,2.58
2022-10-10T13:00:53.428Z,2.30
2022-10-10T13:03:45.336Z,2.60
2022-10-10T13:06:43.518Z,2.80
2022-10-10T13:09:36.969Z,2.65
2022-10-10T13:12:22.777Z,2.42
2022-10-10T13:15:19.932Z,3.50
2022-10-10T13:18:05.446Z,2.47
2022-10-10T13:20:50.817Z,2.22
2022-10-10T13:23:40.379Z,3.03
2022-10-10T13:26:33.302Z,2.20
2022-10-10T13:29:36.095Z,3.10
2022-10-10T13:32:26.359Z,2.90
2022-10-10T13:35:21.610Z,2.30
2022-10-10T13:38:07.205Z,3.40
2022-10-10T13:40:53.304Z,2.60
2022-10-10T13:43:40.696Z,2.08
2022-10-10T13:46:33.925Z,2.65
2022-10-10T13:49:29.830Z,2.17
2022-10-10T13:52:23.927Z,2.20
2022-10-10T13:55:37.907Z,2.58
2022-10-10T13:58:23.460Z,2.00
2022-10-10T14:01:31.251Z,3.13
2022-10-10T14:04:20.671Z,2.70
2022-10-10T14:07:20.762Z,2.38
2022-10-10T14:10:09.078Z,2.28
2022-10-10T14:13:00.079Z,2.30
2022-10-10T14:15:46.894Z,2.97
2022-10-10T14:18:32.569Z,2.90
2022-10-10T14:21:20.943Z,1.83
2022-10-10T14:24:09.133Z,2.55
2022-10-10T14:26:54.789Z,2.78
2022-10-10T14:29:40.122Z,2.00
2022-10-10T14:32:25.771Z,2.00
2022-10-10T14:35:13.442Z,2.22
2022-10-10T14:37:59.135Z,2.40
2022-10-10T14:40:48.027Z,2.83
2022-10-10T14:43:33.525Z,2.20
2022-10-10T14:46:21.495Z,2.90
2022-10-10T14:49:11.010Z,1.85
2022-10-10T14:52:02.033Z,2.38
2022-10-10T14:54:47.155Z,2.38
2022-10-10T14:57:32.779Z,2.35
2022-10-10T15:00:23.263Z,2.25
2022-10-10T15:03:11.342Z,2.42
2022-10-10T15:05:56.745Z,2.85
2022-10-10T15:08:42.333Z,3.78
2022-10-10T15:11:31.923Z,2.38
2022-10-10T15:14:17.603Z,2.47
2022-10-10T15:17:03.026Z,2.47
2022-10-10T15:19:49.151Z,2.72
2022-10-10T15:22:35.318Z,2.70
2022-10-10T15:25:21.130Z,3.05
2022-10-10T15:28:06.888Z,4.22
2022-10-10T15:30:54.664Z,2.78
2022-10-10T15:33:40.538Z,2.50
2022-10-10T15:36:26.386Z,2.35
2022-10-10T15:39:12.681Z,2.70
2022-10-10T15:41:59.598Z,3.67
2022-10-10T15:44:49.943Z,2.95
2022-10-10T15:47:44.135Z,2.58
2022-10-10T15:50:32.446Z,2.22
2022-10-10T15:53:18.933Z,2.53
2022-10-10T15:56:16.061Z,2.50
2022-10-10T15:59:02.569Z,2.53
2022-10-10T16:01:47.918Z,3.00
2022-10-10T16:04:33.843Z,3.30
2022-10-10T16:07:28.169Z,3.13
2022-10-10T16:10:15.627Z,3.10
2022-10-10T16:13:01.251Z,3.58
2022-10-10T16:16:00.212Z,3.33
2022-10-10T16:18:46.464Z,3.22
2022-10-10T16:21:33.629Z,3.13
2022-10-10T16:24:19.339Z,3.50
2022-10-10T16:27:04.601Z,2.90
2022-10-10T16:29:50.289Z,2.88
2022-10-10T16:32:41.813Z,2.35
2022-10-10T16:35:27.973Z,2.63
2022-10-10T16:38:14.672Z,2.97
2022-10-10T16:41:19.660Z,2.60
2022-10-10T16:44:14.140Z,2.80
2022-10-10T16:46:59.472Z,3.25
2022-10-10T16:49:45.041Z,2.80
2022-10-10T16:52:30.483Z,4.00
2022-10-10T16:55:16.257Z,4.00
2022-10-10T16:58:01.980Z,3.35
2022-10-10T17:00:47.271Z,2.67
2022-10-10T17:03:32.764Z,2.53
2022-10-10T17:06:21.329Z,3.00
2022-10-10T17:09:08.396Z,2.40
2022-10-10T17:11:53.861Z,3.08
2022-10-10T17:14:39.315Z,3.05
2022-10-10T17:17:24.891Z,2.47
2022-10-10T17:20:11.081Z,3.15
2022-10-10T17:22:56.739Z,3.10
2022-10-10T17:25:44.447Z,3.35
2022-10-10T17:28:29.799Z,3.00
2022-10-10T17:31:16.103Z,3.08
2022-10-10T17:34:01.739Z,5.97
2022-10-10T17:36:47.354Z,3.88
2022-10-10T17:39:32.852Z,3.67
2022-10-10T17:42:18.586Z,4.43
2022-10-10T17:45:04.338Z,4.13
2022-10-10T17:47:49.909Z,3.10
2022-10-10T17:50:36.744Z,4.10
2022-10-10T17:53:22.390Z,3.95
2022-10-10T17:56:13.616Z,3.42
2022-10-10T17:59:01.809Z,4.00
2022-10-10T18:01:47.309Z,3.38
2022-10-10T18:04:32.985Z,3.55
2022-10-10T18:07:18.937Z,4.03
2022-10-10T18:10:05.050Z,4.03
2022-10-10T18:12:50.285Z,3.78
2022-10-10T18:15:36.095Z,3.20
2022-10-10T18:18:21.510Z,3.20
2022-10-10T18:21:09.418Z,3.35
2022-10-10T18:23:54.875Z,4.28
2022-10-10T18:26:40.415Z,5.45
2022-10-10T18:29:25.812Z,5.60
2022-10-10T18:32:11.487Z,5.10
2022-10-10T18:34:56.963Z,4.40
2022-10-10T18:37:42.414Z,4.15
2022-10-10T18:40:28.073Z,4.35
2022-10-10T18:43:13.598Z,4.25
2022-10-10T18:46:00.961Z,4.10
2022-10-10T18:48:50.259Z,3.88
2022-10-10T18:51:42.689Z,4.65
2022-10-10T18:54:30.186Z,4.10
2022-10-10T18:57:15.678Z,4.43
2022-10-10T19:00:01.301Z,4.07
2022-10-10T19:02:47.034Z,4.65
2022-10-10T19:05:32.376Z,4.47
2022-10-10T19:08:18.133Z,4.10
2022-10-10T19:11:04.908Z,4.35
2022-10-10T19:13:50.866Z,3.20
2022-10-10T19:16:37.447Z,2.90
2022-10-10T19:19:23.802Z,3.28
2022-10-10T19:22:09.438Z,3.30
2022-10-10T19:24:56.449Z,4.93
2022-10-10T19:27:42.195Z,3.85
2022-10-10T19:30:28.473Z,4.25
2022-10-10T19:33:14.286Z,4.68
2022-10-10T19:36:01.851Z,4.97
2022-10-10T19:38:47.190Z,4.63
2022-10-10T19:41:33.219Z,4.30
2022-10-10T19:44:18.557Z,4.03
2022-10-10T19:47:04.250Z,3.95
2022-10-10T19:49:50.421Z,3.60
2022-10-10T19:52:35.786Z,5.50
2022-10-10T19:55:21.413Z,5.30
2022-10-10T19:58:07.436Z,4.05
2022-10-10T20:00:52.744Z,3.67
2022-10-10T20:03:38.602Z,3.85
2022-10-10T20:06:24.372Z,3.17
2022-10-10T20:09:12.795Z,3.63
2022-10-10T20:11:58.205Z,3.95
2022-10-10T20:14:43.911Z,4.25
2022-10-10T20:17:29.760Z,4.25
2022-10-10T20:20:14.875Z,4.60
2022-10-10T20:23:02.259Z,4.57
2022-10-10T20:25:48.022Z,4.95
2022-10-10T20:28:33.501Z,5.13
2022-10-10T20:31:25.301Z,5.95
2022-10-10T20:34:11.040Z,4.65
2022-10-10T20:36:57.334Z,5.18
2022-10-10T20:39:42.648Z,4.20
2022-10-10T20:42:28.371Z,6.05
2022-10-10T20:45:13.821Z,5.65
2022-10-10T20:47:59.238Z,5.72
2022-10-10T20:50:44.738Z,6.20
2022-10-10T20:53:30.107Z,5.93
2022-10-10T20:56:15.856Z,5.15
2022-10-10T20:59:01.484Z,5.60
2022-10-10T21:01:47.378Z,5.15
2022-10-10T21:04:32.971Z,4.88
2022-10-10T21:07:18.669Z,5.70
2022-10-10T21:10:04.510Z,5.47
2022-10-10T21:12:49.919Z,5.60
2022-10-10T21:15:35.388Z,4.30
2022-10-10T21:18:20.963Z,4.93
2022-10-10T21:21:07.361Z,4.13
2022-10-10T21:23:56.235Z,4.75
2022-10-10T21:26:42.694Z,4.72
2022-10-10T21:29:28.253Z,5.82
2022-10-10T21:32:13.453Z,5.22
2022-10-10T21:34:58.959Z,6.13
2022-10-10T21:37:45.663Z,6.03
2022-10-10T21:40:31.254Z,5.13
2022-10-10T21:43:17.228Z,5.75
2022-10-10T21:46:05.102Z,5.60
2022-10-10T21:48:52.482Z,6.70
2022-10-10T21:51:43.281Z,5.32
2022-10-10T21:54:28.835Z,5.72
2022-10-10T21:57:15.229Z,6.05
2022-10-10T22:00:00.571Z,5.88
2022-10-10T22:02:47.363Z,5.28
2022-10-10T22:05:35.002Z,5.45
2022-10-10T22:08:20.413Z,4.95
2022-10-10T22:11:09.084Z,5.75
2022-10-10T22:13:54.837Z,5.00
2022-10-10T22:16:40.364Z,5.65
2022-10-10T22:19:26.162Z,5.53
2022-10-10T22:22:12.057Z,5.63
2022-10-10T22:24:57.692Z,5.40
2022-10-10T22:27:43.923Z,5.07
2022-10-10T22:30:29.268Z,5.25
2022-10-10T22:33:15.184Z,4.97
2022-10-10T22:36:00.940Z,5.25
2022-10-10T22:38:46.775Z,4.90
2022-10-10T22:41:32.225Z,4.90
2022-10-10T22:44:17.843Z,5.03
2022-10-10T22:47:03.091Z,4.40
2022-10-10T22:49:48.823Z,4.60
2022-10-10T22:52:34.423Z,3.97
2022-10-10T22:55:19.905Z,4.35
2022-10-10T22:58:05.268Z,5.97
2022-10-10T23:00:51.109Z,4.30
2022-10-10T23:03:37.139Z,3.95
2022-10-10T23:06:22.301Z,4.63
2022-10-10T23:09:07.902Z,4.55
2022-10-10T23:11:53.011Z,4.72
2022-10-10T23:14:38.877Z,4.65
2022-10-10T23:17:24.901Z,4.80
2022-10-10T23:20:10.575Z,5.03
2022-10-10T23:22:56.539Z,5.40
2022-10-10T23:25:43.442Z,6.10
2022-10-10T23:28:28.838Z,4.28
2022-10-10T23:31:14.384Z,4.65
2022-10-10T23:33:59.737Z,5.10
2022-10-10T23:36:45.324Z,5.35
2022-10-10T23:39:31.268Z,5.80
2022-10-10T23:42:16.733Z,4.47
2022-10-10T23:45:02.505Z,4.90
2022-10-10T23:47:48.360Z,4.50
2022-10-10T23:50:33.624Z,4.78
2022-10-10T23:53:19.307Z,4.43
2022-10-10T23:56:05.022Z,4.18
2022-10-10T23:58:50.700Z,4.30
